sensor_id;sensor_type;location;lat;lon;timestamp;temperature;humidity
19728;DHT22;10015;52.530;13.390;2023-09-07T00:00:14;22.80;99.90
19728;DHT22;10015;52.530;13.390;2023-09-07T00:02:40;22.80;99.90
19728;DHT22;10015;52.530;13.390;2023-09-07T00:05:07;22.80;99.90
19728;DHT22;10015;52.530;13.390;2023-09-07T00:07:35;22.80;99.90
19728;DHT22;10015;52.530;13.390;2023-09-07T00:10:02;22.80;99.90
19728;DHT22;10015;52.530;13.390;2023-09-07T00:12:29;22.70;99.90
19728;DHT22;10015;52.530;13.390;2023-09-07T00:14:55;22.70;99.90
19728;DHT22;10015;52.530;13.390;2023-09-07T00:17:22;22.70;99.90
19728;DHT22;10015;52.530;13.390;2023-09-07T00:19:48;22.60;99.90
19728;DHT22;10015;52.530;13.390;2023-09-07T00:22:17;22.60;99.90
19728;DHT22;10015;52.530;13.390;2023-09-07T00:24:43;22.60;99.90
19728;DHT22;10015;52.530;13.390;2023-09-07T00:27:09;22.60;99.90
19728;DHT22;10015;52.530;13.390;2023-09-07T00:29:40;22.60;99.90
19728;DHT22;10015;52.530;13.390;2023-09-07T00:32:06;22.50;99.90
19728;DHT22;10015;52.530;13.390;2023-09-07T00:34:32;22.50;99.90
19728;DHT22;10015;52.530;13.390;2023-09-07T00:36:58;22.50;99.90
19728;DHT22;10015;52.530;13.390;2023-09-07T00:39:24;22.40;99.90
19728;DHT22;10015;52.530;13.390;2023-09-07T00:41:49;22.40;99.90
19728;DHT22;10015;52.530;13.390;2023-09-07T00:44:15;22.40;99.90
19728;DHT22;10015;52.530;13.390;2023-09-07T00:46:42;22.30;99.90
19728;DHT22;10015;52.530;13.390;2023-09-07T00:49:11;22.30;99.90
19728;DHT22;10015;52.530;13.390;2023-09-07T00:51:37;22.30;99.90
19728;DHT22;10015;52.530;13.390;2023-09-07T00:54:04;22.20;99.90
19728;DHT22;10015;52.530;13.390;2023-09-07T00:56:30;22.30;99.90
19728;DHT22;10015;52.530;13.390;2023-09-07T00:58:58;22.20;99.90
19728;DHT22;10015;52.530;13.390;2023-09-07T01:01:26;22.20;99.90
19728;DHT22;10015;52.530;13.390;2023-09-07T01:03:52;22.20;99.90
19728;DHT22;10015;52.530;13.390;2023-09-07T01:06:22;22.10;99.90
19728;DHT22;10015;52.530;13.390;2023-09-07T01:08:54;22.10;99.90
19728;DHT22;10015;52.530;13.390;2023-09-07T01:11:24;22.10;99.90
19728;DHT22;10015;52.530;13.390;2023-09-07T01:13:51;22.10;99.90
19728;DHT22;10015;52.530;13.390;2023-09-07T01:16:20;22.10;99.90
19728;DHT22;10015;52.530;13.390;2023-09-07T01:18:47;22.10;99.90
19728;DHT22;10015;52.530;13.390;2023-09-07T01:21:14;22.10;99.90
19728;DHT22;10015;52.530;13.390;2023-09-07T01:23:41;22.00;99.90
19728;DHT22;10015;52.530;13.390;2023-09-07T01:26:08;22.00;99.90
19728;DHT22;10015;52.530;13.390;2023-09-07T01:28:35;22.00;99.90
19728;DHT22;10015;52.530;13.390;2023-09-07T01:31:03;22.00;99.90
19728;DHT22;10015;52.530;13.390;2023-09-07T01:33:29;21.90;99.90
19728;DHT22;10015;52.530;13.390;2023-09-07T01:35:55;21.90;99.90
19728;DHT22;10015;52.530;13.390;2023-09-07T01:38:21;21.90;99.90
19728;DHT22;10015;52.530;13.390;2023-09-07T01:40:47;21.90;99.90
19728;DHT22;10015;52.530;13.390;2023-09-07T01:43:13;21.90;99.90
19728;DHT22;10015;52.530;13.390;2023-09-07T01:45:39;21.80;99.90
19728;DHT22;10015;52.530;13.390;2023-09-07T01:48:10;21.90;99.90
19728;DHT22;10015;52.530;13.390;2023-09-07T01:50:36;21.80;99.90
19728;DHT22;10015;52.530;13.390;2023-09-07T01:53:02;21.80;99.90
19728;DHT22;10015;52.530;13.390;2023-09-07T01:55:31;21.80;99.90
19728;DHT22;10015;52.530;13.390;2023-09-07T01:57:59;21.80;99.90
19728;DHT22;10015;52.530;13.390;2023-09-07T02:00:25;21.80;99.90
19728;DHT22;10015;52.530;13.390;2023-09-07T02:02:51;21.70;99.90
19728;DHT22;10015;52.530;13.390;2023-09-07T02:05:17;21.70;99.90
19728;DHT22;10015;52.530;13.390;2023-09-07T02:07:43;21.70;99.90
19728;DHT22;10015;52.530;13.390;2023-09-07T02:10:10;21.70;99.90
19728;DHT22;10015;52.530;13.390;2023-09-07T02:12:36;21.60;99.90
19728;DHT22;10015;52.530;13.390;2023-09-07T02:15:03;21.60;99.90
19728;DHT22;10015;52.530;13.390;2023-09-07T02:17:30;21.60;99.90
19728;DHT22;10015;52.530;13.390;2023-09-07T02:19:56;21.60;99.90
19728;DHT22;10015;52.530;13.390;2023-09-07T02:22:25;21.60;99.90
19728;DHT22;10015;52.530;13.390;2023-09-07T02:24:51;21.60;99.90
19728;DHT22;10015;52.530;13.390;2023-09-07T02:27:17;21.60;99.90
19728;DHT22;10015;52.530;13.390;2023-09-07T02:29:43;21.50;99.90
19728;DHT22;10015;52.530;13.390;2023-09-07T02:32:09;21.50;99.90
19728;DHT22;10015;52.530;13.390;2023-09-07T02:34:35;21.50;99.90
19728;DHT22;10015;52.530;13.390;2023-09-07T02:37:04;21.50;99.90
19728;DHT22;10015;52.530;13.390;2023-09-07T02:39:30;21.50;99.90
19728;DHT22;10015;52.530;13.390;2023-09-07T02:41:56;21.50;99.90
19728;DHT22;10015;52.530;13.390;2023-09-07T02:44:22;21.40;99.90
19728;DHT22;10015;52.530;13.390;2023-09-07T02:46:48;21.40;99.90
19728;DHT22;10015;52.530;13.390;2023-09-07T02:49:14;21.40;99.90
19728;DHT22;10015;52.530;13.390;2023-09-07T02:51:40;21.40;99.90
19728;DHT22;10015;52.530;13.390;2023-09-07T02:54:07;21.40;99.90
19728;DHT22;10015;52.530;13.390;2023-09-07T02:56:33;21.30;99.90
19728;DHT22;10015;52.530;13.390;2023-09-07T02:58:59;21.30;99.90
19728;DHT22;10015;52.530;13.390;2023-09-07T03:01:25;21.30;99.90
19728;DHT22;10015;52.530;13.390;2023-09-07T03:03:51;21.30;99.90
19728;DHT22;10015;52.530;13.390;2023-09-07T03:06:18;21.30;99.90
19728;DHT22;10015;52.530;13.390;2023-09-07T03:08:48;21.30;99.90
19728;DHT22;10015;52.530;13.390;2023-09-07T03:11:15;21.30;99.90
19728;DHT22;10015;52.530;13.390;2023-09-07T03:13:41;21.30;99.90
19728;DHT22;10015;52.530;13.390;2023-09-07T03:16:08;21.30;99.90
19728;DHT22;10015;52.530;13.390;2023-09-07T03:18:34;21.20;99.90
19728;DHT22;10015;52.530;13.390;2023-09-07T03:21:01;21.20;99.90
19728;DHT22;10015;52.530;13.390;2023-09-07T03:23:28;21.20;99.90
19728;DHT22;10015;52.530;13.390;2023-09-07T03:25:54;21.20;99.90
19728;DHT22;10015;52.530;13.390;2023-09-07T03:28:21;21.10;99.90
19728;DHT22;10015;52.530;13.390;2023-09-07T03:30:47;21.20;99.90
19728;DHT22;10015;52.530;13.390;2023-09-07T03:33:13;21.20;99.90
19728;DHT22;10015;52.530;13.390;2023-09-07T03:35:40;21.10;99.90
19728;DHT22;10015;52.530;13.390;2023-09-07T03:38:06;21.20;99.90
19728;DHT22;10015;52.530;13.390;2023-09-07T03:40:32;21.20;99.90
19728;DHT22;10015;52.530;13.390;2023-09-07T03:42:58;21.10;99.90
19728;DHT22;10015;52.530;13.390;2023-09-07T03:45:26;21.10;99.90
19728;DHT22;10015;52.530;13.390;2023-09-07T03:47:52;21.10;99.90
19728;DHT22;10015;52.530;13.390;2023-09-07T03:50:18;21.10;99.90
19728;DHT22;10015;52.530;13.390;2023-09-07T03:52:45;21.10;99.90
19728;DHT22;10015;52.530;13.390;2023-09-07T03:55:11;21.00;99.90
19728;DHT22;10015;52.530;13.390;2023-09-07T03:57:38;21.00;99.90
19728;DHT22;10015;52.530;13.390;2023-09-07T04:00:06;21.00;99.90
19728;DHT22;10015;52.530;13.390;2023-09-07T04:02:39;20.90;99.90
19728;DHT22;10015;52.530;13.390;2023-09-07T04:05:06;20.90;99.90
19728;DHT22;10015;52.530;13.390;2023-09-07T04:07:33;20.90;99.90
19728;DHT22;10015;52.530;13.390;2023-09-07T04:09:59;20.90;99.90
19728;DHT22;10015;52.530;13.390;2023-09-07T04:12:25;20.90;99.90
19728;DHT22;10015;52.530;13.390;2023-09-07T04:14:51;20.90;99.90
19728;DHT22;10015;52.530;13.390;2023-09-07T04:17:17;20.80;99.90
19728;DHT22;10015;52.530;13.390;2023-09-07T04:19:44;20.80;99.90
19728;DHT22;10015;52.530;13.390;2023-09-07T04:22:13;20.80;99.90
19728;DHT22;10015;52.530;13.390;2023-09-07T04:24:39;20.80;99.90
19728;DHT22;10015;52.530;13.390;2023-09-07T04:27:06;20.80;99.90
19728;DHT22;10015;52.530;13.390;2023-09-07T04:29:33;20.70;99.90
19728;DHT22;10015;52.530;13.390;2023-09-07T04:31:59;20.70;99.90
19728;DHT22;10015;52.530;13.390;2023-09-07T04:34:25;20.70;99.90
19728;DHT22;10015;52.530;13.390;2023-09-07T04:36:53;20.70;99.90
19728;DHT22;10015;52.530;13.390;2023-09-07T04:39:19;20.70;99.90
19728;DHT22;10015;52.530;13.390;2023-09-07T04:41:45;20.70;99.90
19728;DHT22;10015;52.530;13.390;2023-09-07T04:44:11;20.70;99.90
19728;DHT22;10015;52.530;13.390;2023-09-07T04:46:37;20.80;99.90
19728;DHT22;10015;52.530;13.390;2023-09-07T04:49:04;20.80;99.90
19728;DHT22;10015;52.530;13.390;2023-09-07T04:51:29;20.80;99.90
19728;DHT22;10015;52.530;13.390;2023-09-07T04:53:56;20.80;99.90
19728;DHT22;10015;52.530;13.390;2023-09-07T04:56:21;20.80;99.90
19728;DHT22;10015;52.530;13.390;2023-09-07T04:58:47;20.80;99.90
19728;DHT22;10015;52.530;13.390;2023-09-07T05:01:13;20.80;99.90
19728;DHT22;10015;52.530;13.390;2023-09-07T05:03:41;20.90;99.90
19728;DHT22;10015;52.530;13.390;2023-09-07T05:06:08;20.80;99.90
19728;DHT22;10015;52.530;13.390;2023-09-07T05:08:34;20.90;99.90
19728;DHT22;10015;52.530;13.390;2023-09-07T05:11:02;20.90;99.90
19728;DHT22;10015;52.530;13.390;2023-09-07T05:13:29;21.00;99.90
19728;DHT22;10015;52.530;13.390;2023-09-07T05:15:59;21.00;99.90
19728;DHT22;10015;52.530;13.390;2023-09-07T05:18:27;21.00;99.90
19728;DHT22;10015;52.530;13.390;2023-09-07T05:20:53;21.00;99.90
19728;DHT22;10015;52.530;13.390;2023-09-07T05:23:21;21.00;99.90
19728;DHT22;10015;52.530;13.390;2023-09-07T05:25:52;21.10;99.90
19728;DHT22;10015;52.530;13.390;2023-09-07T05:28:20;21.10;99.90
19728;DHT22;10015;52.530;13.390;2023-09-07T05:30:47;21.10;99.90
19728;DHT22;10015;52.530;13.390;2023-09-07T05:33:15;21.20;99.90
19728;DHT22;10015;52.530;13.390;2023-09-07T05:35:42;21.30;99.90
19728;DHT22;10015;52.530;13.390;2023-09-07T05:38:09;21.50;99.90
19728;DHT22;10015;52.530;13.390;2023-09-07T05:40:39;21.70;99.90
19728;DHT22;10015;52.530;13.390;2023-09-07T05:43:06;22.10;99.90
19728;DHT22;10015;52.530;13.390;2023-09-07T05:45:35;22.50;99.90
19728;DHT22;10015;52.530;13.390;2023-09-07T05:48:06;22.90;99.90
19728;DHT22;10015;52.530;13.390;2023-09-07T05:50:34;23.30;99.90
19728;DHT22;10015;52.530;13.390;2023-09-07T05:53:01;23.60;99.90
19728;DHT22;10015;52.530;13.390;2023-09-07T05:55:32;24.00;99.90
19728;DHT22;10015;52.530;13.390;2023-09-07T05:57:59;24.40;99.90
19728;DHT22;10015;52.530;13.390;2023-09-07T06:00:27;24.70;99.90
19728;DHT22;10015;52.530;13.390;2023-09-07T06:02:54;25.00;99.90
19728;DHT22;10015;52.530;13.390;2023-09-07T06:05:20;25.30;99.90
19728;DHT22;10015;52.530;13.390;2023-09-07T06:07:47;25.60;99.90
19728;DHT22;10015;52.530;13.390;2023-09-07T06:10:14;25.80;99.90
19728;DHT22;10015;52.530;13.390;2023-09-07T06:12:41;26.10;99.90
19728;DHT22;10015;52.530;13.390;2023-09-07T06:15:08;26.30;99.90
19728;DHT22;10015;52.530;13.390;2023-09-07T06:17:35;26.30;99.90
19728;DHT22;10015;52.530;13.390;2023-09-07T06:20:01;26.50;99.90
19728;DHT22;10015;52.530;13.390;2023-09-07T06:22:27;26.50;99.90
19728;DHT22;10015;52.530;13.390;2023-09-07T06:25:00;26.70;99.90
19728;DHT22;10015;52.530;13.390;2023-09-07T06:27:27;26.80;99.90
19728;DHT22;10015;52.530;13.390;2023-09-07T06:29:53;26.90;99.90
19728;DHT22;10015;52.530;13.390;2023-09-07T06:32:19;27.00;99.90
19728;DHT22;10015;52.530;13.390;2023-09-07T06:34:46;27.10;99.90
19728;DHT22;10015;52.530;13.390;2023-09-07T06:37:13;27.20;99.90
19728;DHT22;10015;52.530;13.390;2023-09-07T06:39:40;27.30;99.90
19728;DHT22;10015;52.530;13.390;2023-09-07T06:42:09;27.50;99.90
19728;DHT22;10015;52.530;13.390;2023-09-07T06:44:45;27.60;99.90
19728;DHT22;10015;52.530;13.390;2023-09-07T06:47:12;27.70;99.90
19728;DHT22;10015;52.530;13.390;2023-09-07T06:49:38;27.90;99.90
19728;DHT22;10015;52.530;13.390;2023-09-07T06:52:05;28.00;99.90
19728;DHT22;10015;52.530;13.390;2023-09-07T06:54:31;28.10;99.90
19728;DHT22;10015;52.530;13.390;2023-09-07T06:56:58;28.30;99.90
19728;DHT22;10015;52.530;13.390;2023-09-07T06:59:24;28.40;99.90
19728;DHT22;10015;52.530;13.390;2023-09-07T07:01:50;28.30;99.90
19728;DHT22;10015;52.530;13.390;2023-09-07T07:04:17;28.30;99.90
19728;DHT22;10015;52.530;13.390;2023-09-07T07:06:43;28.10;99.90
19728;DHT22;10015;52.530;13.390;2023-09-07T07:09:10;28.00;99.90
19728;DHT22;10015;52.530;13.390;2023-09-07T07:11:37;27.80;99.90
19728;DHT22;10015;52.530;13.390;2023-09-07T07:14:06;27.70;99.90
19728;DHT22;10015;52.530;13.390;2023-09-07T07:16:32;27.80;99.90
19728;DHT22;10015;52.530;13.390;2023-09-07T07:18:58;28.00;99.90
19728;DHT22;10015;52.530;13.390;2023-09-07T07:21:25;28.10;99.90
19728;DHT22;10015;52.530;13.390;2023-09-07T07:23:51;28.30;99.90
19728;DHT22;10015;52.530;13.390;2023-09-07T07:26:17;28.30;99.90
19728;DHT22;10015;52.530;13.390;2023-09-07T07:28:44;28.40;99.90
19728;DHT22;10015;52.530;13.390;2023-09-07T07:31:10;28.60;99.90
19728;DHT22;10015;52.530;13.390;2023-09-07T07:33:38;28.70;99.90
19728;DHT22;10015;52.530;13.390;2023-09-07T07:36:05;28.70;99.90
19728;DHT22;10015;52.530;13.390;2023-09-07T07:38:32;28.90;99.90
19728;DHT22;10015;52.530;13.390;2023-09-07T07:40:58;29.00;99.90
19728;DHT22;10015;52.530;13.390;2023-09-07T07:43:25;29.10;99.90
19728;DHT22;10015;52.530;13.390;2023-09-07T07:45:53;29.10;99.90
19728;DHT22;10015;52.530;13.390;2023-09-07T07:48:21;29.10;99.90
19728;DHT22;10015;52.530;13.390;2023-09-07T07:50:48;29.20;99.90
19728;DHT22;10015;52.530;13.390;2023-09-07T07:53:15;29.20;99.90
19728;DHT22;10015;52.530;13.390;2023-09-07T07:55:42;29.30;99.90
19728;DHT22;10015;52.530;13.390;2023-09-07T07:58:15;29.40;99.90
19728;DHT22;10015;52.530;13.390;2023-09-07T08:00:42;29.40;99.90
19728;DHT22;10015;52.530;13.390;2023-09-07T08:03:15;29.70;99.90
19728;DHT22;10015;52.530;13.390;2023-09-07T08:05:44;29.60;99.90
19728;DHT22;10015;52.530;13.390;2023-09-07T08:08:11;29.80;99.90
19728;DHT22;10015;52.530;13.390;2023-09-07T08:10:39;30.10;99.90
19728;DHT22;10015;52.530;13.390;2023-09-07T08:13:09;30.30;99.90
19728;DHT22;10015;52.530;13.390;2023-09-07T08:15:35;30.40;99.90
19728;DHT22;10015;52.530;13.390;2023-09-07T08:18:04;30.50;99.90
19728;DHT22;10015;52.530;13.390;2023-09-07T08:20:32;30.60;99.90
19728;DHT22;10015;52.530;13.390;2023-09-07T08:22:59;30.80;99.90
19728;DHT22;10015;52.530;13.390;2023-09-07T08:25:27;31.00;99.90
19728;DHT22;10015;52.530;13.390;2023-09-07T08:27:54;31.10;99.90
19728;DHT22;10015;52.530;13.390;2023-09-07T08:30:23;31.20;99.90
19728;DHT22;10015;52.530;13.390;2023-09-07T08:32:51;31.30;99.90
19728;DHT22;10015;52.530;13.390;2023-09-07T08:35:18;31.30;99.90
19728;DHT22;10015;52.530;13.390;2023-09-07T08:37:46;31.30;99.90
19728;DHT22;10015;52.530;13.390;2023-09-07T08:40:13;31.40;99.90
19728;DHT22;10015;52.530;13.390;2023-09-07T08:42:40;31.10;99.90
19728;DHT22;10015;52.530;13.390;2023-09-07T08:45:08;30.80;99.90
19728;DHT22;10015;52.530;13.390;2023-09-07T08:47:37;30.20;99.90
19728;DHT22;10015;52.530;13.390;2023-09-07T08:50:05;30.20;99.90
19728;DHT22;10015;52.530;13.390;2023-09-07T08:52:35;30.20;99.90
19728;DHT22;10015;52.530;13.390;2023-09-07T08:55:02;30.10;99.90
19728;DHT22;10015;52.530;13.390;2023-09-07T08:57:31;30.20;99.90
19728;DHT22;10015;52.530;13.390;2023-09-07T08:59:58;30.00;99.90
19728;DHT22;10015;52.530;13.390;2023-09-07T09:02:25;29.80;99.90
19728;DHT22;10015;52.530;13.390;2023-09-07T09:04:53;29.90;99.90
19728;DHT22;10015;52.530;13.390;2023-09-07T09:07:20;29.80;99.90
19728;DHT22;10015;52.530;13.390;2023-09-07T09:09:47;29.90;99.90
19728;DHT22;10015;52.530;13.390;2023-09-07T09:12:13;29.80;99.90
19728;DHT22;10015;52.530;13.390;2023-09-07T09:14:44;29.90;99.90
19728;DHT22;10015;52.530;13.390;2023-09-07T09:17:14;30.10;99.90
19728;DHT22;10015;52.530;13.390;2023-09-07T09:19:44;30.20;99.90
19728;DHT22;10015;52.530;13.390;2023-09-07T09:22:11;30.30;99.90
19728;DHT22;10015;52.530;13.390;2023-09-07T09:24:38;30.20;99.90
19728;DHT22;10015;52.530;13.390;2023-09-07T09:27:04;30.10;99.90
19728;DHT22;10015;52.530;13.390;2023-09-07T09:29:35;30.00;99.90
19728;DHT22;10015;52.530;13.390;2023-09-07T09:32:03;30.10;99.90
19728;DHT22;10015;52.530;13.390;2023-09-07T09:34:34;30.10;99.90
19728;DHT22;10015;52.530;13.390;2023-09-07T09:37:04;30.30;99.90
19728;DHT22;10015;52.530;13.390;2023-09-07T09:39:30;30.40;99.90
19728;DHT22;10015;52.530;13.390;2023-09-07T09:41:57;30.50;99.90
19728;DHT22;10015;52.530;13.390;2023-09-07T09:44:25;30.30;99.90
19728;DHT22;10015;52.530;13.390;2023-09-07T09:46:55;30.30;99.90
19728;DHT22;10015;52.530;13.390;2023-09-07T09:49:22;30.20;99.90
19728;DHT22;10015;52.530;13.390;2023-09-07T09:51:49;30.40;99.90
19728;DHT22;10015;52.530;13.390;2023-09-07T09:54:17;30.50;99.90
19728;DHT22;10015;52.530;13.390;2023-09-07T09:56:44;30.60;99.90
19728;DHT22;10015;52.530;13.390;2023-09-07T09:59:13;30.70;99.90
19728;DHT22;10015;52.530;13.390;2023-09-07T10:01:49;30.60;99.90
19728;DHT22;10015;52.530;13.390;2023-09-07T10:04:17;30.60;99.90
19728;DHT22;10015;52.530;13.390;2023-09-07T10:06:54;30.50;99.90
19728;DHT22;10015;52.530;13.390;2023-09-07T10:09:21;30.80;99.90
19728;DHT22;10015;52.530;13.390;2023-09-07T10:11:54;30.90;99.70
19728;DHT22;10015;52.530;13.390;2023-09-07T10:14:20;30.90;99.70
19728;DHT22;10015;52.530;13.390;2023-09-07T10:16:47;31.00;99.10
19728;DHT22;10015;52.530;13.390;2023-09-07T10:19:32;31.10;99.00
19728;DHT22;10015;52.530;13.390;2023-09-07T10:22:02;30.80;98.40
19728;DHT22;10015;52.530;13.390;2023-09-07T10:24:31;30.70;98.40
19728;DHT22;10015;52.530;13.390;2023-09-07T10:27:06;30.60;98.10
19728;DHT22;10015;52.530;13.390;2023-09-07T10:29:55;30.50;97.20
19728;DHT22;10015;52.530;13.390;2023-09-07T10:32:21;30.40;97.50
19728;DHT22;10015;52.530;13.390;2023-09-07T10:34:47;30.40;98.10
19728;DHT22;10015;52.530;13.390;2023-09-07T10:37:14;30.40;97.90
19728;DHT22;10015;52.530;13.390;2023-09-07T10:39:41;30.50;98.30
19728;DHT22;10015;52.530;13.390;2023-09-07T10:42:24;30.70;97.70
19728;DHT22;10015;52.530;13.390;2023-09-07T10:44:51;30.70;97.50
19728;DHT22;10015;52.530;13.390;2023-09-07T10:47:18;30.80;97.50
19728;DHT22;10015;52.530;13.390;2023-09-07T10:49:44;30.90;97.00
19728;DHT22;10015;52.530;13.390;2023-09-07T10:52:11;30.70;96.30
19728;DHT22;10015;52.530;13.390;2023-09-07T10:54:37;30.60;96.20
19728;DHT22;10015;52.530;13.390;2023-09-07T10:57:10;30.40;96.00
19728;DHT22;10015;52.530;13.390;2023-09-07T10:59:37;30.30;96.10
19728;DHT22;10015;52.530;13.390;2023-09-07T11:02:06;30.30;96.10
19728;DHT22;10015;52.530;13.390;2023-09-07T11:04:32;30.40;96.10
19728;DHT22;10015;52.530;13.390;2023-09-07T11:06:58;30.40;96.00
19728;DHT22;10015;52.530;13.390;2023-09-07T11:09:24;30.40;95.70
19728;DHT22;10015;52.530;13.390;2023-09-07T11:11:50;30.40;96.00
19728;DHT22;10015;52.530;13.390;2023-09-07T11:14:16;30.50;95.80
19728;DHT22;10015;52.530;13.390;2023-09-07T11:16:42;30.70;95.80
19728;DHT22;10015;52.530;13.390;2023-09-07T11:19:09;30.60;95.90
19728;DHT22;10015;52.530;13.390;2023-09-07T11:21:35;30.40;96.30
19728;DHT22;10015;52.530;13.390;2023-09-07T11:24:02;30.30;96.40
19728;DHT22;10015;52.530;13.390;2023-09-07T11:26:42;30.40;96.60
19728;DHT22;10015;52.530;13.390;2023-09-07T11:29:09;30.70;96.80
19728;DHT22;10015;52.530;13.390;2023-09-07T11:31:35;30.90;96.80
19728;DHT22;10015;52.530;13.390;2023-09-07T11:34:01;31.00;96.70
19728;DHT22;10015;52.530;13.390;2023-09-07T11:36:28;31.20;96.10
19728;DHT22;10015;52.530;13.390;2023-09-07T11:38:54;31.30;96.00
19728;DHT22;10015;52.530;13.390;2023-09-07T11:41:21;31.40;95.50
19728;DHT22;10015;52.530;13.390;2023-09-07T11:43:47;31.30;95.00
19728;DHT22;10015;52.530;13.390;2023-09-07T11:46:13;31.30;94.80
19728;DHT22;10015;52.530;13.390;2023-09-07T11:48:39;31.20;94.70
19728;DHT22;10015;52.530;13.390;2023-09-07T11:51:05;31.10;94.80
19728;DHT22;10015;52.530;13.390;2023-09-07T11:53:32;31.20;95.00
19728;DHT22;10015;52.530;13.390;2023-09-07T11:55:58;31.20;95.00
19728;DHT22;10015;52.530;13.390;2023-09-07T11:58:25;31.30;95.00
19728;DHT22;10015;52.530;13.390;2023-09-07T12:00:52;31.10;94.90
19728;DHT22;10015;52.530;13.390;2023-09-07T12:03:18;31.30;94.60
19728;DHT22;10015;52.530;13.390;2023-09-07T12:05:45;31.20;94.70
19728;DHT22;10015;52.530;13.390;2023-09-07T12:08:11;31.30;94.80
19728;DHT22;10015;52.530;13.390;2023-09-07T12:10:37;31.30;94.40
19728;DHT22;10015;52.530;13.390;2023-09-07T12:13:03;31.10;94.10
19728;DHT22;10015;52.530;13.390;2023-09-07T12:15:29;31.10;94.50
19728;DHT22;10015;52.530;13.390;2023-09-07T12:17:55;31.20;94.40
19728;DHT22;10015;52.530;13.390;2023-09-07T12:20:21;31.20;94.40
19728;DHT22;10015;52.530;13.390;2023-09-07T12:22:47;31.10;94.60
19728;DHT22;10015;52.530;13.390;2023-09-07T12:25:14;31.10;94.80
19728;DHT22;10015;52.530;13.390;2023-09-07T12:27:41;31.10;94.70
19728;DHT22;10015;52.530;13.390;2023-09-07T12:30:12;31.00;94.50
19728;DHT22;10015;52.530;13.390;2023-09-07T12:32:39;31.00;94.40
19728;DHT22;10015;52.530;13.390;2023-09-07T12:35:06;31.00;94.50
19728;DHT22;10015;52.530;13.390;2023-09-07T12:37:38;31.00;94.60
19728;DHT22;10015;52.530;13.390;2023-09-07T12:40:04;31.10;94.50
19728;DHT22;10015;52.530;13.390;2023-09-07T12:42:44;31.20;94.20
19728;DHT22;10015;52.530;13.390;2023-09-07T12:45:11;31.20;94.20
19728;DHT22;10015;52.530;13.390;2023-09-07T12:47:38;31.40;94.10
19728;DHT22;10015;52.530;13.390;2023-09-07T12:50:05;31.30;94.30
19728;DHT22;10015;52.530;13.390;2023-09-07T12:52:33;31.30;93.30
19728;DHT22;10015;52.530;13.390;2023-09-07T12:55:03;31.30;93.60
19728;DHT22;10015;52.530;13.390;2023-09-07T12:57:29;31.20;93.50
19728;DHT22;10015;52.530;13.390;2023-09-07T12:59:55;30.90;93.70
19728;DHT22;10015;52.530;13.390;2023-09-07T13:02:21;30.70;94.00
19728;DHT22;10015;52.530;13.390;2023-09-07T13:04:47;30.70;94.00
19728;DHT22;10015;52.530;13.390;2023-09-07T13:07:13;30.70;94.40
19728;DHT22;10015;52.530;13.390;2023-09-07T13:09:42;30.60;94.10
19728;DHT22;10015;52.530;13.390;2023-09-07T13:12:08;30.70;94.50
19728;DHT22;10015;52.530;13.390;2023-09-07T13:14:35;30.70;94.40
19728;DHT22;10015;52.530;13.390;2023-09-07T13:17:01;30.70;94.40
19728;DHT22;10015;52.530;13.390;2023-09-07T13:19:27;30.70;94.60
19728;DHT22;10015;52.530;13.390;2023-09-07T13:21:54;30.70;94.80
19728;DHT22;10015;52.530;13.390;2023-09-07T13:24:21;30.60;94.60
19728;DHT22;10015;52.530;13.390;2023-09-07T13:26:50;30.60;94.60
19728;DHT22;10015;52.530;13.390;2023-09-07T13:29:16;30.50;94.40
19728;DHT22;10015;52.530;13.390;2023-09-07T13:31:42;30.40;94.50
19728;DHT22;10015;52.530;13.390;2023-09-07T13:34:08;30.20;94.70
19728;DHT22;10015;52.530;13.390;2023-09-07T13:36:34;30.30;94.90
19728;DHT22;10015;52.530;13.390;2023-09-07T13:39:00;30.30;95.00
19728;DHT22;10015;52.530;13.390;2023-09-07T13:41:27;30.20;95.00
19728;DHT22;10015;52.530;13.390;2023-09-07T13:43:53;30.20;94.90
19728;DHT22;10015;52.530;13.390;2023-09-07T13:46:20;30.20;94.80
19728;DHT22;10015;52.530;13.390;2023-09-07T13:48:46;30.30;94.70
19728;DHT22;10015;52.530;13.390;2023-09-07T13:51:12;30.20;94.80
19728;DHT22;10015;52.530;13.390;2023-09-07T13:53:38;30.40;94.40
19728;DHT22;10015;52.530;13.390;2023-09-07T13:56:04;30.40;94.40
19728;DHT22;10015;52.530;13.390;2023-09-07T13:58:31;30.10;94.60
19728;DHT22;10015;52.530;13.390;2023-09-07T14:00:57;30.00;94.70
19728;DHT22;10015;52.530;13.390;2023-09-07T14:03:23;30.00;94.40
19728;DHT22;10015;52.530;13.390;2023-09-07T14:05:50;30.10;94.60
19728;DHT22;10015;52.530;13.390;2023-09-07T14:08:16;30.10;94.30
19728;DHT22;10015;52.530;13.390;2023-09-07T14:10:43;30.00;94.40
19728;DHT22;10015;52.530;13.390;2023-09-07T14:13:09;29.90;94.50
19728;DHT22;10015;52.530;13.390;2023-09-07T14:15:35;29.90;94.60
19728;DHT22;10015;52.530;13.390;2023-09-07T14:18:01;29.90;94.60
19728;DHT22;10015;52.530;13.390;2023-09-07T14:20:28;29.80;94.70
19728;DHT22;10015;52.530;13.390;2023-09-07T14:22:54;29.80;94.60
19728;DHT22;10015;52.530;13.390;2023-09-07T14:25:22;29.90;94.70
19728;DHT22;10015;52.530;13.390;2023-09-07T14:27:48;29.90;94.70
19728;DHT22;10015;52.530;13.390;2023-09-07T14:30:14;29.90;94.50
19728;DHT22;10015;52.530;13.390;2023-09-07T14:32:40;29.80;94.80
19728;DHT22;10015;52.530;13.390;2023-09-07T14:35:06;29.80;94.80
19728;DHT22;10015;52.530;13.390;2023-09-07T14:37:35;29.70;94.70
19728;DHT22;10015;52.530;13.390;2023-09-07T14:40:01;29.60;94.50
19728;DHT22;10015;52.530;13.390;2023-09-07T14:42:27;29.70;94.60
19728;DHT22;10015;52.530;13.390;2023-09-07T14:44:56;29.60;94.80
19728;DHT22;10015;52.530;13.390;2023-09-07T14:47:23;29.60;95.00
19728;DHT22;10015;52.530;13.390;2023-09-07T14:49:52;29.60;94.80
19728;DHT22;10015;52.530;13.390;2023-09-07T14:52:18;29.70;94.60
19728;DHT22;10015;52.530;13.390;2023-09-07T14:54:47;29.80;94.50
19728;DHT22;10015;52.530;13.390;2023-09-07T14:57:12;29.80;94.60
19728;DHT22;10015;52.530;13.390;2023-09-07T14:59:38;29.80;94.80
19728;DHT22;10015;52.530;13.390;2023-09-07T15:02:06;29.80;94.60
19728;DHT22;10015;52.530;13.390;2023-09-07T15:04:33;29.80;95.00
19728;DHT22;10015;52.530;13.390;2023-09-07T15:06:59;29.70;94.60
19728;DHT22;10015;52.530;13.390;2023-09-07T15:09:25;29.50;94.80
19728;DHT22;10015;52.530;13.390;2023-09-07T15:11:51;29.50;95.00
19728;DHT22;10015;52.530;13.390;2023-09-07T15:14:19;29.50;94.90